This is the latest recevied weather packets stored in our database for station/object W0DP. If no packets are shown the sender has not sent any weather packets the latest 10 day(s).
| Time | Temp. | Humidity | Pressure | Rain* | Wind** | Luminosity | Snow |
|---|---|---|---|---|---|---|---|
| 1777833016 | 24.44° C | 31% | 1009.9 hPa | 0 mm | - | - | - |
| 1777832416 | 24.44° C | 31% | 1009.9 hPa | 0 mm | - | - | - |
| 1777831836 | 24.44° C | 33% | 1009.8 hPa | 0 mm | - | - | - |
| 1777828816 | 22.78° C | 36% | 1010 hPa | 0 mm | - | - | - |
| 1777828216 | 22.22° C | 37% | 1010 hPa | 0 mm | - | - | - |
| 1777827036 | 23.33° C | 38% | 1010 hPa | 0 mm | - | - | - |
| 1777824015 | 21.11° C | 40% | 1010.1 hPa | 0 mm | - | - | - |
| 1777823415 | 21.11° C | 42% | 1010.1 hPa | 0 mm | - | - | - |
| 1777822835 | 20° C | 46% | 1010.2 hPa | 0 mm | - | - | - |
| 1777822235 | 20° C | 44% | 1010.1 hPa | 0 mm | - | - | - |
| 1777818617 | 17.78° C | 50% | 1010.1 hPa | 0 mm | - | - | - |
| 1777816295 | 17.22° C | 44% | 1010.4 hPa | 0 mm | - | - | - |
| 1777812017 | 12.78° C | 52% | 1010.4 hPa | 0 mm | - | - | - |
| 1777806317 | 11.11° C | 61% | 1010.8 hPa | 0 mm | - | - | - |
| 1777802116 | 11.67° C | 57% | 1011.1 hPa | 0 mm | - | - | - |
| 1777794316 | 11.67° C | 56% | 1013.2 hPa | 0 mm | - | - | - |
| 1777791316 | 11.11° C | 56% | 1013.6 hPa | 0 mm | - | - | - |
| 1777789516 | 11.11° C | 55% | 1014.2 hPa | 0 mm | - | - | - |
| 1777788336 | 11.11° C | 55% | 1014.2 hPa | 0 mm | - | - | - |
| 1777784116 | 11.67° C | 56% | 1014.9 hPa | 0 mm | - | - | - |
| 1777779316 | 12.22° C | 53% | 1015.7 hPa | 0 mm | - | - | - |
| 1777773336 | 13.89° C | 47% | 1016.3 hPa | 0 mm | - | - | - |
| 1777772715 | 13.89° C | 45% | 1016.2 hPa | 0 mm | - | - | - |
| 1777770917 | 15° C | 42% | 1016.1 hPa | 0 mm | - | - | - |
| 1777770317 | 15° C | 41% | 1016.1 hPa | 0 mm | - | - | - |
* Rain latest hour (hover to see other rain measurements)
** Current wind speed in m/s (hover to see current wind gust speed)